地図

経路データ

SID SEASON NUMBER BASIN SUBBASIN NAME ISO_TIME NATURE LAT LON WMO_WIND WMO_PRES WMO_AGENCY TRACK_TYPE DIST2LAND LANDFALL IFLAG USA_AGENCY USA_ATCF_ID USA_LAT USA_LON USA_RECORD USA_STATUS USA_WIND USA_PRES USA_SSHS USA_R34_NE USA_R34_SE USA_R34_SW USA_R34_NW USA_R50_NE USA_R50_SE USA_R50_SW USA_R50_NW USA_R64_NE USA_R64_SE USA_R64_SW USA_R64_NW USA_POCI USA_ROCI USA_RMW USA_EYE TOKYO_LAT TOKYO_LON TOKYO_GRADE TOKYO_WIND TOKYO_PRES TOKYO_R50_DIR TOKYO_R50_LONG TOKYO_R50_SHORT TOKYO_R30_DIR TOKYO_R30_LONG TOKYO_R30_SHORT TOKYO_LAND CMA_LAT CMA_LON CMA_CAT CMA_WIND CMA_PRES HKO_LAT HKO_LON HKO_CAT HKO_WIND HKO_PRES NEWDELHI_LAT NEWDELHI_LON NEWDELHI_GRADE NEWDELHI_WIND NEWDELHI_PRES NEWDELHI_CI NEWDELHI_DP NEWDELHI_POCI REUNION_LAT REUNION_LON REUNION_TYPE REUNION_WIND REUNION_PRES REUNION_TNUM REUNION_CI REUNION_RMW REUNION_R34_NE REUNION_R34_SE REUNION_R34_SW REUNION_R34_NW REUNION_R50_NE REUNION_R50_SE REUNION_R50_SW REUNION_R50_NW REUNION_R64_NE REUNION_R64_SE REUNION_R64_SW REUNION_R64_NW BOM_LAT BOM_LON BOM_TYPE BOM_WIND BOM_PRES BOM_TNUM BOM_CI BOM_RMW BOM_R34_NE BOM_R34_SE BOM_R34_SW BOM_R34_NW BOM_R50_NE BOM_R50_SE BOM_R50_SW BOM_R50_NW BOM_R64_NE BOM_R64_SE BOM_R64_SW BOM_R64_NW BOM_ROCI BOM_POCI BOM_EYE BOM_POS_METHOD BOM_PRES_METHOD NADI_LAT NADI_LON NADI_CAT NADI_WIND NADI_PRES WELLINGTON_LAT WELLINGTON_LON WELLINGTON_WIND WELLINGTON_PRES DS824_LAT DS824_LON DS824_STAGE DS824_WIND DS824_PRES TD9636_LAT TD9636_LON TD9636_STAGE TD9636_WIND TD9636_PRES TD9635_LAT TD9635_LON TD9635_WIND TD9635_PRES TD9635_ROCI NEUMANN_LAT NEUMANN_LON NEUMANN_CLASS NEUMANN_WIND NEUMANN_PRES MLC_LAT MLC_LON MLC_CLASS MLC_WIND MLC_PRES USA_GUST BOM_GUST BOM_GUST_PER REUNION_GUST REUNION_GUST_PER USA_SEAHGT USA_SEARAD_NE USA_SEARAD_SE USA_SEARAD_SW USA_SEARAD_NW STORM_SPEED STORM_DIR
1922042S17061 1922 15 SI MM NOT_NAMED 1922-02-11 00:00:00 TS -16.9000 61.2000 main 514 483 _________O____ -1 -16.9000 61.2000 TC 25 8 174
1922042S17061 1922 15 SI MM NOT_NAMED 1922-02-11 03:00:00 TS -17.2975 61.2500 main 483 464 _________P____ -1 -17.2975 61.2500 TC 25 8 173
1922042S17061 1922 15 SI MM NOT_NAMED 1922-02-11 06:00:00 TS -17.7000 61.3000 main 464 439 _________O____ -1 -17.7000 61.3000 TC 25 8 173
1922042S17061 1922 15 SI MM NOT_NAMED 1922-02-11 09:00:00 TS -18.1075 61.3500 main 448 427 _________P____ -1 -18.1075 61.3500 TC 25 8 173
1922042S17061 1922 15 SI MM NOT_NAMED 1922-02-11 12:00:00 TS -18.5000 61.4000 main 427 412 _________O____ -1 -18.5000 61.4000 TC 25 8 174
1922042S17061 1922 15 SI MM NOT_NAMED 1922-02-11 15:00:00 TS -18.8650 61.4351 main 408 404 _________P____ -1 -18.8650 61.4351 TC 25 7 172
1922042S17061 1922 15 SI MM NOT_NAMED 1922-02-11 18:00:00 TS -19.2000 61.5000 main 406 402 _________O____ -1 -19.2000 61.5000 TC 25 7 165
1922042S17061 1922 15 SI MM NOT_NAMED 1922-02-11 21:00:00 TS -19.5075 61.6201 main 407 404 _________P____ -1 -19.5075 61.6201 TC 25 7 155
1922042S17061 1922 15 SI MM NOT_NAMED 1922-02-12 00:00:00 TS -19.8000 61.8000 main 421 420 _________O____ -1 -19.8000 61.8000 TC 25 7 147
1922042S17061 1922 15 SI MM NOT_NAMED 1922-02-12 03:00:00 TS -20.1000 62.0350 main 438 438 _________P____ -1 -20.1000 62.0350 TC 25 8 142
1922042S17061 1922 15 SI MM NOT_NAMED 1922-02-12 06:00:00 TS -20.4000 62.3000 main 469 469 _________O____ -1 -20.4000 62.3000 TC 25 8 141
1922042S17061 1922 15 SI MM NOT_NAMED 1922-02-12 09:00:00 TS -20.7000 62.5501 main 501 501 _________P____ -1 -20.7000 62.5501 TC 25 8 142
1922042S17061 1922 15 SI MM NOT_NAMED 1922-02-12 12:00:00 TS -21.0000 62.8000 main 526 526 _________O____ -1 -21.0000 62.8000 TC 25 8 143
1922042S17061 1922 15 SI MM NOT_NAMED 1922-02-12 15:00:00 TS -21.2999 63.0426 main 551 551 _________P____ -1 -21.2999 63.0426 TC 25 8 142
1922042S17061 1922 15 SI MM NOT_NAMED 1922-02-12 18:00:00 TS -21.6000 63.3000 main 589 589 _________O____ -1 -21.6000 63.3000 TC 25 8 140
1922042S17061 1922 15 SI MM NOT_NAMED 1922-02-12 21:00:00 TS -21.8773 63.5630 main 627 627 _________P____ -1 -21.8773 63.5630 TC 25 8 137
1922042S17061 1922 15 SI MM NOT_NAMED 1922-02-13 00:00:00 TS -22.2000 63.9000 main 666 666 _________O____ -1 -22.2000 63.9000 TC 25 11 135
1922042S17061 1922 15 SI MM NOT_NAMED 1922-02-13 03:00:00 TS -22.6275 64.3625 main 729 729 _________P____ -1 -22.6275 64.3625 TC 25 13 134
1922042S17061 1922 15 SI MM NOT_NAMED 1922-02-13 06:00:00 TS -23.1000 64.9000 main 797 797 _________O____ -1 -23.1000 64.9000 TC 25 13 133
1922042S17061 1922 15 SI MM NOT_NAMED 1922-02-13 09:00:00 TS -23.5422 65.4281 main 861 861 _________P____ -1 -23.5422 65.4281 TC 25 14 132
1922042S17061 1922 15 SI MM NOT_NAMED 1922-02-13 12:00:00 TS -24.0000 66.0000 main 939 939 _________O____ -1 -24.0000 66.0000 TC 25 15 131
1922042S17061 1922 15 SI MM NOT_NAMED 1922-02-13 15:00:00 TS -24.5073 66.6276 main 1017 1017 _________P____ -1 -24.5073 66.6276 TC 25 16 130
1922042S17061 1922 15 SI MM NOT_NAMED 1922-02-13 18:00:00 TS -25.0000 67.3000 main 1104 1104 _________O____ -1 -25.0000 67.3000 TC 25 15 126
1922042S17061 1922 15 SI MM NOT_NAMED 1922-02-13 21:00:00 TS -25.4069 67.9710 main 1187 1187 _________P____ -1 -25.4069 67.9710 TC 25 15 122
1922042S17061 1922 15 SI MM NOT_NAMED 1922-02-14 00:00:00 TS -25.8000 68.7000 main 1269 1269 _________O____ -1 -25.8000 68.7000 TC 25 16 121
1922042S17061 1922 15 SI MM NOT_NAMED 1922-02-14 03:00:00 TS -26.2422 69.5204 main 1361 1361 _________P____ -1 -26.2422 69.5204 TC 25 18 121
1922042S17061 1922 15 SI MM NOT_NAMED 1922-02-14 06:00:00 TS -26.7000 70.4000 main 1466 1466 _________O____ -1 -26.7000 70.4000 TC 25 18 120
1922042S17061 1922 15 SI MM NOT_NAMED 1922-02-14 09:00:00 TS -27.1573 71.3078 main 1570 1570 _________P____ -1 -27.1573 71.3078 TC 25 18 119
1922042S17061 1922 15 SI MM NOT_NAMED 1922-02-14 12:00:00 TS -27.6000 72.2000 main 1669 1669 _________O____ -1 -27.6000 72.2000 TC 25 17 119
1922042S17061 1922 15 SI MM NOT_NAMED 1922-02-14 15:00:00 TS -28.0069 73.0233 main 1760 1760 _________P____ -1 -28.0069 73.0233 TC 25 16 120
1922042S17061 1922 15 SI MM NOT_NAMED 1922-02-14 18:00:00 TS -28.4000 73.8000 main 1849 1849 _________O____ -1 -28.4000 73.8000 TC 25 16 120
1922042S17061 1922 15 SI MM NOT_NAMED 1922-02-14 21:00:00 TS -28.7984 74.5537 main 1939 1939 _________P____ -1 -28.7984 74.5537 TC 25 15 121
1922042S17061 1922 15 SI MM NOT_NAMED 1922-02-15 00:00:00 TS -29.2000 75.3000 main 2019 _________O____ -1 -29.2000 75.3000 TC 25 15 122

IBTrACS Databaseについて

本データベースは、米国NOAAが公開する1842年以降の世界の熱帯低気圧のベストトラックデータアーカイブInternational Best Track Archive for Climate Stewardship (IBTrACS)を、ウェブで閲覧しやすい形式に変換したものです。

最終更新日:2021-12-06